Brigham City Airport


Codes: KBMC/BMC
Name: Brigham City Airport
City: Brigham City
Country: United States
Elevation: 4229 ft.
Website:
Wikipedia:

Photos at Brigham City Airport


   Photos courtesy of SpottingLog. You can add your own sightings and photos by signing up for a free trial today.



No photos found.

Weather at Brigham City Airport


Time (UTC)DescriptionTempratureWindCloud coverageVisibilityPressureHumidity
19-Apr-2024 03:00Few Clouds9°C2 mph, SE15%10000m1017hPa51%
19-Apr-2024 06:00Few Clouds7°C4 mph, E21%10000m1018hPa50%
19-Apr-2024 09:00Scattered Clouds5°C4 mph, NE48%10000m1019hPa47%
19-Apr-2024 12:00Broken Clouds3°C4 mph, NE54%10000m1021hPa43%
19-Apr-2024 15:00Overcast Clouds7°C4 mph, NE96%10000m1020hPa38%
19-Apr-2024 18:00Overcast Clouds11°C7 mph, N98%10000m1017hPa34%
19-Apr-2024 21:00Overcast Clouds14°C7 mph, N100%10000m1015hPa28%
20-Apr-2024 00:00Overcast Clouds14°C7 mph, NE100%10000m1015hPa32%
20-Apr-2024 03:00Overcast Clouds10°C4 mph, NE100%10000m1016hPa41%
20-Apr-2024 06:00Overcast Clouds9°C4 mph, NE100%10000m1016hPa42%
20-Apr-2024 09:00Overcast Clouds7°C4 mph, NE94%10000m1017hPa47%
20-Apr-2024 12:00Overcast Clouds6°C4 mph, NE88%10000m1018hPa52%
20-Apr-2024 15:00Scattered Clouds10°C2 mph, NE33%10000m1018hPa45%
20-Apr-2024 18:00Scattered Clouds15°C4 mph, NW35%10000m1017hPa36%
20-Apr-2024 21:00Scattered Clouds17°C4 mph, W35%10000m1017hPa31%
21-Apr-2024 00:00Broken Clouds17°C4 mph, SW67%10000m1015hPa33%
21-Apr-2024 03:00Scattered Clouds11°C4 mph, S25%10000m1017hPa48%
21-Apr-2024 06:00Scattered Clouds10°C4 mph, SE41%10000m1018hPa52%
21-Apr-2024 09:00Broken Clouds9°C4 mph, SE67%10000m1018hPa50%
21-Apr-2024 12:00Broken Clouds9°C4 mph, SE61%10000m1017hPa50%
21-Apr-2024 15:00Few Clouds14°C4 mph, S12%10000m1016hPa44%
21-Apr-2024 18:00Few Clouds19°C9 mph, SW12%10000m1014hPa35%
21-Apr-2024 21:00Broken Clouds21°C13 mph, SW71%10000m1011hPa28%
22-Apr-2024 00:00Broken Clouds22°C9 mph, SW70%10000m1007hPa29%
22-Apr-2024 03:00Overcast Clouds12°C7 mph, NE100%10000m1011hPa62%
22-Apr-2024 06:00Overcast Clouds10°C7 mph, NE100%10000m1014hPa67%
22-Apr-2024 09:00Overcast Clouds9°C4 mph, NE99%10000m1015hPa58%
22-Apr-2024 12:00Overcast Clouds7°C4 mph, NE99%10000m1015hPa51%
22-Apr-2024 15:00Overcast Clouds10°C4 mph, N100%10000m1016hPa43%
22-Apr-2024 18:00Broken Clouds14°C4 mph, NW54%10000m1014hPa34%
22-Apr-2024 21:00Scattered Clouds17°C2 mph, NW26%10000m1012hPa25%
23-Apr-2024 00:00Few Clouds17°C2 mph, W19%10000m1010hPa26%
23-Apr-2024 03:00Scattered Clouds11°C4 mph, NE47%10000m1013hPa47%
23-Apr-2024 06:00Broken Clouds9°C7 mph, NE66%10000m1014hPa42%
23-Apr-2024 09:00Scattered Clouds7°C4 mph, NE49%10000m1014hPa44%
23-Apr-2024 12:00Broken Clouds6°C7 mph, NE56%10000m1015hPa48%
23-Apr-2024 15:00Overcast Clouds11°C4 mph, NE100%10000m1014hPa43%
23-Apr-2024 18:00Overcast Clouds16°C4 mph, NE100%10000m1012hPa33%
23-Apr-2024 21:00Overcast Clouds20°C4 mph, NW99%10000m1009hPa31%
24-Apr-2024 00:00Overcast Clouds20°C4 mph, NW89%10000m1007hPa34%